Extreme weather reports worldwide

Highest temperatures

Station
 
Location
 
Name
 
Wind
Knots
Gust
Knots
Vis
SM
Temp/Dew
C
Baro
inHg
METAR
 
IFP KIFP Bullhead City, US Laughlin Bullhead International Airport 4 10 48/1 29.61 KIFP 172050Z 33004KT 10SM BKN120 48/01 A2961
PSP KPSP Palm Springs, US Palm Springs International Airport 6 10 48/5 29.63 KPSP 172053Z VRB06KT 10SM CLR 49/06 A2963 RMK AO2 SLP026 T04890056 57027
KL08 8 15 10 48/4 29.62 KL08 172055Z AUTO 12008G15KT 10SM CLR 48/04 A2962 RMK AO2
EED KEED Needles, US Needles Airport 11 10 47/0 29.64 KEED 172056Z AUTO 08011KT 10SM CLR 48/00 A2964 RMK AO2 SLP992 T04780000 58022
KCHD Chandler, US Chandler Municipal Airport 6 10 46/2 29.70 KCHD 172047Z 22006KT 10SM SKC 46/02 A2970

Station
 
Location
 
Name
 
Wind
Knots
Gust
Knots
Vis
SM
Temp/Dew
C
Baro
inHg
METAR
 
DAG KDAG Daggett, US Barstow Daggett Airport 6 10 46/0 29.74 KDAG 172050Z AUTO 03006KT 10SM CLR 46/M01 A2974 RMK AO2 SLP033 T04611006 58024
PHX KPHX Phoenix, US Phoenix Sky Harbor International Airport 9 16 10 46/2 29.67 KPHX 172051Z 15009G16KT 10SM FEW170 FEW220 47/02 A2967 RMK AO2 SLP020 T04670022 58023
BLH KBLH Blythe, US Blythe Airport 6 10 46/8 29.62 KBLH 172052Z AUTO 17006KT 10SM CLR 46/08 A2962 RMK AO2 SLP022 T04610083 58022
TRM KTRM Palm Springs, US Jacqueline Cochran Regional Airport 10 46/12 29.57 KTRM 172052Z AUTO 10SM CLR 47/12 A2957 RMK AO2 SLP016 T04670122 56027
MXL MMML Mexicali, MX General Rodolfo Sánchez Taboada International Airport 3 8 45/8 29.62 MMML 172040Z 26003KT 8SM FEW140 SCT200 45/08 A2962 RMK SLP030 57020 987 8/036 HZY
GYR KGYR Goodyear, US Phoenix Goodyear Airport 0 10 45/9 29.68 KGYR 172047Z 00000KT 10SM SCT180 45/09 A2968
AZA KIWA Phoenix, US Phoenix-Mesa-Gateway Airport 9 10 45/3 29.72 KIWA 172050Z 17009KT 10SM FEW150 SCT250 45/03 A2972
SCF KSDL Scottsdale, US Scottsdale Airport 3 10 45/5 29.72 KSDL 172053Z VRB03KT 10SM CLR 45/05 A2972 RMK AO2 SLP031 T04500050 58021
VGT KVGT Las Vegas, US North Las Vegas Airport 6 10 45/0 29.74 KVGT 172053Z 26006KT 10SM CLR 45/00 A2974 RMK AO2 SLP051 T04500000 58024
MSC KFFZ Mesa, US Falcon Field 5 10 45/1 29.70 KFFZ 172054Z 13005KT 10SM CLR 45/02 A2970 RMK AO2 SLP026 T04500017 58023 $
KA39 9 10 45/5 29.74 KA39 172055Z AUTO 22009KT 10SM SCT110 45/05 A2974 RMK AO2
CGZ KCGZ Casa Grande, US Casa Grande Municipal Airport 7 10 45/3 KCGZ 172056Z AUTO 15007KT 10SM CLR 46/04 RMK AO2 SLPNO T04560039 $
KNID China Lake, US China Lake Naws (Armitage Field) Airport 9 18 10 45/0 29.79 KNID 172056Z 19009G18KT 10SM FEW120 FEW250 45/00 A2979 RMK AO2 SLP053 T04500000 56023 $
NJK KNJK El Centro, US El Centro NAF Airport (Vraciu Field) 0 10 45/23 29.60 KNJK 172056Z 00000KT 10SM CLR 45/23 A2960 RMK AO2 SLP040 T04500233 $
KNXP Twentynine Palms, US Twentynine Palms (Self) Airport 7 10 45/-2 29.82 KNXP 172056Z AUTO 11007KT 10SM CLR 46/M03 A2982 RMK AO2 SLP051 T04561028 58021 $
KRYN Tucson, US Ryan Field 12 17 10 44/0 29.82 KRYN 172045Z 09012G17KT 10SM CLR 44/00 A2982
DVT KDVT Phoenix, US Phoenix Deer Valley Airport 10 16 10 44/5 29.71 KDVT 172053Z 19010G16KT 10SM CLR 44/05 A2971 RMK AO2 SLP029 T04440050 58020
IPL KIPL Imperial, US Imperial County Airport 3 10 44/8 29.59 KIPL 172053Z AUTO VRB03KT 10SM CLR 44/08 A2959 RMK AO2 SLP020 T04440083 58024
AVW KAVQ Tucson, US Marana Regional Airport 8 10 44/-2 29.76 KAVQ 172055Z AUTO 05008KT 020V080 10SM CLR 44/M02 A2976 RMK AO2 T04431023
KBVU 4 10 44/-1 29.78 KBVU 172055Z AUTO 06004KT 10SM CLR 44/M01 A2978 RMK AO2
BXK KBXK Buckeye, US Buckeye Municipal Airport 4 10 44/8 29.69 KBXK 172055Z AUTO 23004KT 10SM 44/08 A2969 RMK A01
HII KHII Lake Havasu City, US Lake Havasu City Airport 0 10 44/3 29.64 KHII 172055Z AUTO 00000KT 10SM CLR 44/03 A2964 RMK AO2
MZJ KMZJ Marana, US Pinal Airpark 7 10 44/0 29.77 KMZJ 172055Z AUTO 15007KT 10SM CLR 44/M00 A2977 RMK AO2
KP08 4 14 9 44/3 29.72 KP08 172055Z AUTO 20004G14KT 9SM CLR 44/03 A2972 RMK AO2
HSH KHND Las Vegas, US Henderson Executive Airport 6 14 10 44/2 29.83 KHND 172056Z VRB06G14KT 10SM CLR 44/03 A2983 RMK AO2 SLP074 T04440028 58019
YUM KNYL Yuma, US Yuma MCAS/Yuma International Airport 5 7 44/10 29.62 KNYL 172057Z 26005KT 7SM SCT150 44/10 A2962 RMK AO2 SLP027 T04440100 58022 $
KGXF 11 18 10 44/4 29.64 KGXF 172058Z 26011G18KT 10SM FEW270 SCT330 45/05 A2964 RMK AO2A SLP020 T04460046 57023
LGF KLGF Yuma Proving Ground(Yuma), US Laguna Army Airfield 8 5 44/10 29.64 KLGF 172058Z AUTO 25008KT 5SM HZ CLR 44/10 A2964 RMK AO2 SLP031 T04410102 57018 $
LSV KLSV Las Vegas, US Nellis Air Force Base 8 16 10 44/1 29.74 KLSV 172058Z AUTO 06008G16KT 10SM CLR 45/01 A2974 RMK AO2 SLP038 T04480011 57023 $
LUF KLUF Glendale, US Luke Air Force Base 0 10 44/4 29.67 KLUF 172058Z AUTO 00000KT 10SM CLR 44/04 A2967 RMK AO2 SLP028 T04420042 57024
HMO MMHO Hermosillo, MX General Ignacio P. Garcia International Airport 4 10 43/12 29.71 MMHO 172043Z 30004KT 10SM SKC 43/12 A2971 RMK SLP049 57025 964 HZY
LAS KLAS Las Vegas, US McCarran International Airport 4 10 43/1 29.79 KLAS 172056Z 01004KT 10SM FEW140 SCT180 BKN250 44/01 A2979 RMK AO2 SLP050 T04390011 58020
WJF KWJF Lancaster, US General WM J Fox Airfield 17 23 10 43/5 29.81 KWJF 172056Z 23017G23KT 10SM CLR 44/05 A2981 RMK AO2 SLP064 60000 T04390050 57026
K9L2 5 8 43/-1 29.80 K9L2 172058Z AUTO 20005KT 8SM FEW300 44/M02 A2980 RMK AO2 SLP056 T04381017 57023 $
BYS KBYS Fort Irwin/Barstow, US Bicycle Lake Army Air Field 3 10 43/-1 29.79 KBYS 172058Z AUTO 27003KT 10SM FEW350 44/M02 A2979 RMK AO2 SLP049 T04351019 57021 $
MHV KMHV Mojave, US Mojave Airport 12 18 10 42/1 29.87 KMHV 172040Z AUTO 19012G18KT 160V260 10SM CLR 42/01 A2987 RMK A01
PMD KPMD Palmdale, US Palmdale Regional/USAF Plant 42 Airport 10 42/5 29.83 KPMD 172053Z 10SM CLR 43/05 A2983 RMK AO2 SLP061 T04280050 57023
TUS KTUS Tucson, US Tucson International Airport / Morris Air National Guard Base 10 42/0 29.84 KTUS 172053Z 10SM CLR 43/M01 A2984 RMK AO2 SLP039 T04281006 58023
DMA KDMA Tucson, US Davis Monthan Air Force Base 4 10 42/1 29.82 KDMA 172058Z AUTO 08004KT 10SM SCT160 SCT190 43/01 A2982 RMK AO2 SLP042 T04270014 57023 $
EDW KEDW Edwards, US Edwards Air Force Base 5 40 42/0 29.79 KEDW 172058Z 26005KT 40SM SCT140 43/M00 A2979 RMK AO2A SLP055 T04291003 57022
IGM KIGM Kingman, US Kingman Airport 0 10 41/2 29.90 KIGM 172051Z AUTO 00000KT 10SM CLR 41/02 A2990 RMK AO2 SLP036 T04110022 57017
DRA KDRA Mercury, US Desert Rock Airport 6 10 41/-3 29.89 KDRA 172053Z AUTO 13006KT 10SM CLR 41/M04 A2989 RMK AO2 SLP057 T04111039 58019
HLC KHLC Hill City, US Hill City Municipal Airport 11 23 10 41/9 29.83 KHLC 172053Z AUTO 19011G23KT 10SM CLR 42/09 A2983 RMK AO2 SLP066 T04170094 58020
MCK KMCK Mc Cook, US Mc Cook Ben Nelson Regional Airport 14 22 10 41/6 29.81 KMCK 172053Z AUTO 22014G22KT 10SM CLR 42/06 A2981 RMK AO2 SLP058 T04170061 56019
PGA KPGA Page, US Page Municipal Airport 9 10 41/-6 29.94 KPGA 172053Z AUTO 05009KT 10SM CLR 42/M06 A2994 RMK AO2 SLP049 T04171061 57021 TSNO